Time;durP1;ratioP1;P1;durP2;ratioP2;P2;SDS_P1;SDS_P2;PMS_P1;PMS_P2;Temp;Humidity;BMP_temperature;BMP_pressure;BME280_temperature;BME280_humidity;BME280_pressure;Samples;Min_cycle;Max_cycle;Signal;HPM_P1;HPM_P2
2022/04/24 14:02:49;;;;;;;3.88;2.83;;;18.00;57.50;;;;;;5960624;24;20021;-93
2022/04/24 14:05:41;;;;;;;;;;;;;;;;;;;;;
2022/04/24 14:11:54;;;;;;;3.67;3.10;;;18.00;57.00;;;;;;5939265;24;20024;-93
2022/04/24 14:15:28;;;;;;;;;;;;;;;;;;;;;
2022/04/24 14:18:23;;;;;;;4.65;2.40;;;18.00;54.40;;;;;;6123920;23;20013;-92
2022/04/24 14:24:42;;;;;;;5.03;2.95;;;18.10;54.30;;;;;;6105875;23;20005;-92
2022/04/24 14:27:28;;;;;;;2.55;2.17;;;18.20;53.50;;;;;;6109812;23;20010;-93
2022/04/24 14:30:20;;;;;;;2.53;2.13;;;18.30;54.10;;;;;;6111213;23;20101;-92
2022/04/24 14:33:18;;;;;;;2.97;2.13;;;18.30;54.40;;;;;;6096595;23;20084;-91
2022/04/24 14:39:37;;;;;;;;;;;;;;;;;;;;;
2022/04/24 14:42:47;;;;;;;2.97;2.30;;;18.30;53.00;;;;;;6105978;23;20381;-92
2022/04/24 15:02:03;;;;;;;;;;;;;;;;;;;;;
2022/04/24 15:15:21;;;;;;;;;;;;;;;;;;;;;
2022/04/24 15:21:38;;;;;;;;;;;;;;;;;;;;;
2022/04/24 15:28:42;;;;;;;;;;;;;;;;;;;;;
2022/04/24 15:36:01;;;;;;;;;;;;;;;;;;;;;
2022/04/24 15:38:50;;;;;;;;;;;;;;;;;;;;;
2022/04/24 15:49:46;;;;;;;6.38;3.20;;;17.30;54.00;;;;;;5817847;24;20060;-95
2022/04/24 15:56:02;;;;;;;3.42;2.70;;;17.20;55.00;;;;;;5843184;24;20026;-92
2022/04/24 16:16:20;;;;;;;;;;;;;;;;;;;;;
2022/04/24 16:23:17;;;;;;;;;;;;;;;;;;;;;
2022/04/24 16:26:51;;;;;;;;;;;;;;;;;;;;;
2022/04/24 16:36:48;;;;;;;3.10;2.30;;;17.30;54.70;;;;;;6160175;23;20031;-93
2022/04/24 16:43:19;;;;;;;;;;;;;;;;;;;;;
2022/04/24 18:39:47;;;;;;;;;;;;;;;;;;;;;
2022/04/24 19:27:15;;;;;;;;;;;;;;;;;;;;;
2022/04/24 19:30:25;;;;;;;;;;;;;;;;;;;;;
2022/04/24 19:37:28;;;;;;;;;;;;;;;;;;;;;
2022/04/24 19:51:15;;;;;;;;;;;;;;;;;;;;;
2022/04/24 19:59:57;;;;;;;;;;;;;;;;;;;;;
2022/04/24 20:03:03;;;;;;;3.60;2.00;;;13.80;67.60;;;;;;6219588;23;20071;-91
2022/04/24 20:06:19;;;;;;;;;;;;;;;;;;;;;
2022/04/24 20:09:20;;;;;;;4.25;2.05;;;13.70;68.20;;;;;;6191881;23;20024;-90
2022/04/24 20:16:03;;;;;;;2.70;2.20;;;13.70;68.50;;;;;;6222571;23;20016;-91
2022/04/24 20:19:15;;;;;;;;;;;;;;;;;;;;;
2022/04/24 20:25:41;;;;;;;3.25;2.42;;;13.50;69.60;;;;;;6229333;23;20359;-89
2022/04/24 20:28:22;;;;;;;;;;;;;;;;;;;;;
2022/04/24 20:34:22;;;;;;;4.18;3.20;;;13.20;71.50;;;;;;6230777;23;20004;-90
2022/04/24 20:40:13;;;;;;;7.55;3.10;;;13.10;73.00;;;;;;6225485;23;20088;-90
2022/04/24 20:42:44;;;;;;;3.85;3.10;;;13.00;73.40;;;;;;6220628;23;20007;-90
2022/04/24 20:45:28;;;;;;;;;;;;;;;;;;;;;
2022/04/24 20:48:15;;;;;;;3.97;2.88;;;12.90;74.00;;;;;;6246694;23;20071;-88
2022/04/24 20:50:54;;;;;;;5.50;3.40;;;12.90;74.00;;;;;;6220483;23;20028;-88
2022/04/24 20:53:40;;;;;;;5.43;3.22;;;12.90;74.30;;;;;;6220673;23;20000;-88
2022/04/24 20:56:45;;;;;;;;;;;;;;;;;;;;;
2022/04/24 20:59:33;;;;;;;;;;;;;;;;;;;;;
2022/04/24 21:02:13;;;;;;;2.95;2.63;;;12.80;74.20;;;;;;6246129;23;20407;-89
2022/04/24 21:05:05;;;;;;;5.50;3.63;;;12.80;74.60;;;;;;6219736;23;20000;-90
2022/04/24 21:10:59;;;;;;;;;;;;;;;;;;;;;
2022/04/24 21:13:57;;;;;;;;;;;;;;;;;;;;;
2022/04/24 21:16:41;;;;;;;8.57;3.50;;;12.50;76.30;;;;;;6247544;23;19978;-90
2022/04/24 21:19:14;;;;;;;6.13;3.85;;;12.40;76.60;;;;;;6220891;23;20012;-88
2022/04/24 21:21:53;;;;;;;;;;;;;;;;;;;;;
2022/04/24 21:24:29;;;;;;;5.30;3.17;;;12.40;76.80;;;;;;6252274;23;20039;-90
2022/04/24 21:27:15;;;;;;;5.03;3.67;;;12.40;76.70;;;;;;6245837;22;20011;-91
2022/04/24 21:30:11;;;;;;;;;;;;;;;;;;;;;
2022/04/24 21:33:48;;;;;;;7.00;3.50;;;12.30;77.40;;;;;;6268843;22;20004;-92
2022/04/24 21:36:16;;;;;;;5.38;3.20;;;12.30;77.70;;;;;;6247585;22;20068;-89
2022/04/24 21:39:01;;;;;;;;;;;;;;;;;;;;;
2022/04/24 21:41:45;;;;;;;5.43;3.60;;;12.10;77.90;;;;;;6254292;22;20091;-88
2022/04/24 21:44:38;;;;;;;5.30;3.47;;;12.10;78.10;;;;;;6203817;22;20016;-89
2022/04/24 21:47:22;;;;;;;7.32;4.10;;;12.00;78.10;;;;;;6230498;22;20016;-90
2022/04/24 21:50:04;;;;;;;6.30;4.32;;;12.00;78.50;;;;;;6227461;22;20000;-89
2022/04/24 21:53:00;;;;;;;;;;;;;;;;;;;;;
2022/04/24 21:55:49;;;;;;;5.32;4.25;;;11.90;79.60;;;;;;6278007;22;20087;-89
2022/04/24 21:58:36;;;;;;;6.38;3.97;;;11.80;79.70;;;;;;6226651;22;20469;-89
2022/04/24 22:04:21;;;;;;;;;;;;;;;;;;;;;
2022/04/24 22:04:33;;;;;;;;;;;;;;;;;;;;;
2022/04/24 22:07:28;;;;;;;5.75;4.35;;;11.70;80.20;;;;;;6255062;22;20099;-88
2022/04/24 22:10:17;;;;;;;7.00;4.28;;;11.60;80.50;;;;;;6233660;22;20008;-89
2022/04/24 22:13:06;;;;;;;6.57;4.68;;;11.60;80.50;;;;;;6229111;22;20551;-90
2022/04/24 22:16:26;;;;;;;7.68;5.13;;;11.60;81.00;;;;;;6201501;22;20010;-89
2022/04/24 22:19:27;;;;;;;10.52;4.60;;;11.50;81.10;;;;;;6115730;23;20006;-89
2022/04/24 22:25:24;;;;;;;6.25;4.57;;;11.40;81.60;;;;;;6251455;22;20018;-92
2022/04/24 22:31:10;;;;;;;8.32;4.63;;;11.30;82.30;;;;;;6260530;22;20003;-91
2022/04/24 22:33:50;;;;;;;6.88;4.53;;;11.30;82.10;;;;;;6251969;22;20007;-89
2022/04/24 22:36:18;;;;;;;9.68;4.93;;;11.30;82.20;;;;;;6251120;22;20016;-90
2022/04/24 22:39:03;;;;;;;;;;;;;;;;;;;;;
2022/04/24 22:41:55;;;;;;;7.15;5.32;;;11.20;82.70;;;;;;6278978;22;20078;-89
2022/04/24 22:44:32;;;;;;;7.20;5.05;;;11.10;83.50;;;;;;6232647;22;20418;-90
2022/04/24 22:47:08;;;;;;;7.72;4.55;;;11.10;83.60;;;;;;6251957;22;20040;-91
2022/04/24 22:50:06;;;;;;;;;;;;;;;;;;;;;
2022/04/24 22:53:31;;;;;;;;;;;;;;;;;;;;;
2022/04/24 22:56:38;;;;;;;;;;;;;;;;;;;;;
2022/04/24 22:59:18;;;;;;;7.05;4.38;;;10.90;84.20;;;;;;6255341;22;20084;-90
2022/04/24 23:01:51;;;;;;;7.68;4.53;;;10.90;84.00;;;;;;6207018;22;20026;-89
2022/04/24 23:04:20;;;;;;;8.63;5.50;;;10.90;83.90;;;;;;6260044;22;20011;-88
2022/04/24 23:07:15;;;;;;;6.78;4.90;;;10.90;84.00;;;;;;6276534;22;20011;-89
2022/04/24 23:09:43;;;;;;;8.75;5.38;;;11.00;84.00;;;;;;6282314;22;20015;-89
2022/04/24 23:12:11;;;;;;;6.88;5.38;;;10.90;84.30;;;;;;6275418;22;20008;-90
2022/04/24 23:14:40;;;;;;;9.80;5.70;;;10.90;84.30;;;;;;6245636;22;20004;-91
2022/04/24 23:20:27;;;;;;;6.57;5.00;;;10.80;85.20;;;;;;6278885;22;20065;-90
2022/04/24 23:23:33;;;;;;;9.20;5.35;;;10.80;85.00;;;;;;6252065;22;19999;-89
2022/04/24 23:26:17;;;;;;;11.98;5.85;;;10.70;85.40;;;;;;6229169;22;20078;-90
2022/04/24 23:28:54;;;;;;;8.10;5.65;;;10.70;85.50;;;;;;6251914;22;20003;-90
2022/04/24 23:31:22;;;;;;;9.18;5.38;;;10.60;85.60;;;;;;6227287;22;20027;-90
2022/04/24 23:34:00;;;;;;;7.43;5.47;;;10.70;85.70;;;;;;6251604;22;20004;-89
2022/04/24 23:36:30;;;;;;;9.68;6.10;;;10.70;85.90;;;;;;6227487;22;20055;-88
2022/04/24 23:39:19;;;;;;;11.63;6.18;;;10.60;86.00;;;;;;6226908;22;20011;-89
2022/04/24 23:42:34;;;;;;;7.50;6.40;;;10.60;86.50;;;;;;6251531;22;20409;-90
2022/04/24 23:45:15;;;;;;;;;;;;;;;;;;;;;
2022/04/24 23:48:20;;;;;;;10.30;6.05;;;10.50;86.90;;;;;;6278560;22;20087;-91
2022/04/24 23:51:08;;;;;;;;;;;;;;;;;;;;;
2022/04/24 23:54:04;;;;;;;7.82;5.65;;;10.40;87.20;;;;;;6277917;22;20074;-90
2022/04/24 23:56:51;;;;;;;9.48;5.75;;;10.40;87.20;;;;;;6227056;22;20015;-90
2022/04/24 23:59:47;;;;;;;7.50;5.90;;;10.40;87.00;;;;;;6228862;22;20004;-89
